Time;durP1;ratioP1;P1;durP2;ratioP2;P2;SDS_P1;SDS_P2;PMS_P1;PMS_P2;Temp;Humidity;BMP_temperature;BMP_pressure;BME280_temperature;BME280_humidity;BME280_pressure;Samples;Min_cycle;Max_cycle;Signal;HPM_P1;HPM_P2
2022/03/22 00:04:28;;;;;;;3.63;3.03;;;;;;;19.20;40.46;98581.47;10544069;28;20055;-60
2022/03/22 00:09:47;;;;;;;3.95;3.15;;;;;;;19.18;40.47;98576.34;10532008;28;20037;-60
2022/03/22 00:15:08;;;;;;;5.63;3.10;;;;;;;19.16;40.35;98576.63;10537170;28;20068;-60
2022/03/22 00:20:30;;;;;;;3.47;3.17;;;;;;;19.16;40.34;98576.63;10508738;28;20194;-61
2022/03/22 00:25:50;;;;;;;4.43;3.28;;;;;;;19.15;40.17;98582.31;10537676;28;20047;-60
2022/03/22 00:31:09;;;;;;;3.38;3.00;;;;;;;19.12;40.38;98572.88;10513996;28;20044;-60
2022/03/22 00:36:31;;;;;;;3.58;3.17;;;;;;;19.12;40.25;98567.47;10538144;28;20043;-60
2022/03/22 00:41:52;;;;;;;3.80;3.20;;;;;;;19.10;40.12;98568.84;10519364;28;20041;-60
2022/03/22 00:47:12;;;;;;;3.53;3.05;;;;;;;19.09;40.23;98562.63;10526191;28;20090;-60
2022/03/22 00:52:32;;;;;;;3.35;2.83;;;;;;;19.08;40.28;98566.41;10513451;28;20070;-60
2022/03/22 00:57:52;;;;;;;3.75;2.95;;;;;;;19.08;40.22;98563.72;10559720;28;20048;-60
2022/03/22 01:03:12;;;;;;;3.50;2.92;;;;;;;19.06;40.10;98563.19;10538456;28;20059;-60
2022/03/22 01:08:32;;;;;;;3.00;2.70;;;;;;;19.05;40.00;98553.47;10549876;28;20453;-60
2022/03/22 01:13:51;;;;;;;3.83;3.05;;;;;;;19.04;40.07;98562.66;10534048;28;20048;-60
2022/03/22 01:19:10;;;;;;;3.83;2.85;;;;;;;19.03;39.91;98562.91;10510850;28;20052;-60
2022/03/22 01:24:29;;;;;;;3.30;3.00;;;;;;;19.01;39.98;98557.00;10531895;28;20056;-60
2022/03/22 01:29:49;;;;;;;3.80;2.75;;;;;;;19.02;40.03;98562.13;10531832;28;20052;-60
2022/03/22 01:35:09;;;;;;;4.05;3.08;;;;;;;18.99;39.95;98551.84;10501787;28;20052;-60
2022/03/22 01:40:30;;;;;;;3.30;2.92;;;;;;;18.98;39.96;98546.75;10522055;28;20059;-60
2022/03/22 01:45:50;;;;;;;3.85;2.97;;;;;;;18.96;39.84;98547.03;10537855;28;20048;-60
2022/03/22 01:51:10;;;;;;;3.83;2.92;;;;;;;18.96;39.89;98538.94;10529472;28;20049;-60
2022/03/22 01:56:30;;;;;;;3.10;2.80;;;;;;;18.95;39.83;98537.28;10535779;28;20036;-60
2022/03/22 02:07:31;;;;;;;3.93;2.90;;;;;;;18.93;39.73;98525.97;10555473;28;20056;-60
2022/03/22 02:12:51;;;;;;;3.22;2.78;;;;;;;18.90;39.87;98521.94;10551819;28;20039;-60
2022/03/22 02:18:12;;;;;;;3.63;2.65;;;;;;;18.90;39.76;98515.75;10529250;28;20040;-61
2022/03/22 02:23:51;;;;;;;2.63;2.40;;;;;;;18.90;39.54;98510.34;10547425;28;20056;-61
2022/03/22 02:29:10;;;;;;;2.78;2.53;;;;;;;18.88;39.70;98507.09;10543384;28;20048;-61
2022/03/22 02:34:30;;;;;;;4.15;2.45;;;;;;;18.86;39.58;98504.69;10568727;28;20058;-60
2022/03/22 02:39:50;;;;;;;3.42;2.75;;;;;;;18.85;39.53;98510.34;10541257;28;20096;-60
2022/03/22 02:45:11;;;;;;;3.70;2.63;;;;;;;18.84;39.55;98506.06;10529047;28;20052;-60
2022/03/22 02:50:31;;;;;;;2.72;2.50;;;;;;;18.83;39.52;98509.81;10529411;28;20419;-60
2022/03/22 02:55:50;;;;;;;2.47;2.28;;;;;;;18.80;39.50;98505.78;10507250;28;20041;-60
2022/03/22 03:01:10;;;;;;;2.97;2.38;;;;;;;18.81;39.63;98506.59;10515434;28;20101;-60
2022/03/22 03:06:29;;;;;;;2.55;2.35;;;;;;;18.80;39.66;98515.75;10523268;28;20044;-60
2022/03/22 03:11:49;;;;;;;2.60;2.20;;;;;;;18.78;39.44;98507.94;10547895;28;20043;-61
2022/03/22 03:17:13;;;;;;;2.53;2.33;;;;;;;18.76;39.62;98508.19;10527967;28;20048;-60
2022/03/22 03:22:34;;;;;;;2.25;2.03;;;;;;;18.75;39.56;98508.47;10528875;28;20493;-60
2022/03/22 03:27:53;;;;;;;2.50;2.30;;;;;;;18.73;39.59;98514.16;10529087;28;20044;-60
2022/03/22 03:33:12;;;;;;;2.60;2.38;;;;;;;18.73;39.41;98516.03;10548663;28;20036;-60
2022/03/22 03:38:32;;;;;;;2.22;2.03;;;;;;;18.72;39.48;98511.75;10534429;28;20047;-60
2022/03/22 03:43:52;;;;;;;2.50;2.30;;;;;;;18.71;39.45;98521.72;10520705;28;20053;-60
2022/03/22 03:49:11;;;;;;;3.13;2.15;;;;;;;18.70;39.49;98525.50;10522052;28;20040;-61
2022/03/22 03:54:30;;;;;;;3.17;2.35;;;;;;;18.69;39.34;98518.47;10534700;28;20047;-61
2022/03/22 03:59:51;;;;;;;2.92;2.40;;;;;;;18.67;39.35;98517.97;10518707;28;20487;-61
2022/03/22 04:05:11;;;;;;;2.45;2.22;;;;;;;18.66;39.45;98513.66;10522857;28;20054;-60
2022/03/22 04:10:31;;;;;;;2.63;2.30;;;;;;;18.65;39.23;98517.41;10515970;28;20052;-60
2022/03/22 04:15:52;;;;;;;2.22;2.03;;;;;;;18.64;39.23;98521.22;10535430;28;20070;-59
2022/03/22 04:21:11;;;;;;;2.33;2.13;;;;;;;18.63;39.34;98519.59;10532364;28;20070;-60
2022/03/22 04:26:30;;;;;;;3.42;2.42;;;;;;;18.63;39.30;98516.09;10519503;28;20438;-60
2022/03/22 04:37:29;;;;;;;2.90;2.20;;;;;;;18.59;39.33;98515.84;10534506;28;20040;-60
2022/03/22 04:42:51;;;;;;;2.45;2.25;;;;;;;18.58;39.12;98512.34;10542057;28;20055;-60
2022/03/22 04:48:13;;;;;;;2.47;2.10;;;;;;;18.58;39.21;98520.44;10534014;28;20052;-60
2022/03/22 04:59:10;;;;;;;2.50;2.30;;;;;;;18.58;39.25;98535.78;10532011;28;20048;-60
2022/03/22 05:04:30;;;;;;;2.60;2.30;;;;;;;18.57;39.05;98531.50;10529737;28;20052;-59
2022/03/22 05:09:49;;;;;;;2.53;2.30;;;;;;;18.58;39.14;98543.91;10532393;28;20086;-60
2022/03/22 05:15:10;;;;;;;3.00;2.63;;;;;;;18.59;39.70;98545.53;10534690;28;20052;-60
2022/03/22 05:20:29;;;;;;;3.45;2.30;;;;;;;18.59;40.01;98537.44;10534213;28;20056;-59
2022/03/22 05:25:48;;;;;;;2.20;2.00;;;;;;;18.62;40.10;98542.28;10526631;28;20051;-60
2022/03/22 05:31:12;;;;;;;2.60;2.40;;;;;;;18.65;39.89;98543.63;10519517;28;20059;-60
2022/03/22 05:36:31;;;;;;;2.53;2.33;;;;;;;18.67;40.29;98536.06;10523817;28;20048;-61
2022/03/22 05:41:51;;;;;;;2.30;2.10;;;;;;;18.69;40.26;98537.38;10547827;28;20040;-61
2022/03/22 05:47:13;;;;;;;3.25;2.05;;;;;;;18.70;40.44;98536.31;10576140;28;20051;-60
2022/03/22 05:52:34;;;;;;;2.45;2.20;;;;;;;18.70;40.38;98532.78;10525175;28;20048;-60
2022/03/22 05:57:53;;;;;;;3.63;1.98;;;;;;;18.72;40.63;98539.53;10532581;28;20070;-59
2022/03/22 06:03:13;;;;;;;2.40;1.83;;;;;;;18.74;40.81;98540.06;10537480;28;20052;-59
2022/03/22 06:08:34;;;;;;;2.78;2.17;;;;;;;18.78;40.88;98545.72;10531314;28;20052;-59
2022/03/22 06:13:53;;;;;;;3.50;2.08;;;;;;;18.81;41.02;98552.50;10539643;28;20051;-59
2022/03/22 06:19:12;;;;;;;2.53;2.03;;;;;;;18.83;41.36;98561.94;10548016;28;20052;-59
2022/03/22 06:24:31;;;;;;;8.98;3.40;;;;;;;18.87;40.82;98559.47;10527758;28;20048;-59
2022/03/22 06:29:51;;;;;;;9.02;3.65;;;;;;;18.90;40.78;98553.53;10543611;28;20051;-59
2022/03/22 06:35:10;;;;;;;9.63;4.00;;;;;;;18.94;40.73;98560.00;10527890;28;20052;-59
2022/03/22 06:40:33;;;;;;;10.38;4.13;;;;;;;18.98;40.56;98555.66;10523040;28;20336;-59
2022/03/22 06:45:53;;;;;;;7.68;3.70;;;;;;;19.03;40.60;98560.22;10486997;28;20040;-59
2022/03/22 06:51:12;;;;;;;10.95;3.83;;;;;;;19.07;40.46;98555.88;10529487;28;20040;-59
2022/03/22 06:56:32;;;;;;;8.52;3.65;;;;;;;19.09;40.34;98546.44;10524501;28;20529;-59
2022/03/22 07:01:51;;;;;;;9.07;4.00;;;;;;;19.12;40.19;98556.66;10536595;28;20040;-58
2022/03/22 07:07:10;;;;;;;11.77;3.88;;;;;;;19.15;40.28;98564.22;10537653;28;20047;-58
2022/03/22 07:12:30;;;;;;;9.18;3.67;;;;;;;19.16;40.33;98568.53;10532680;28;20478;-59
2022/03/22 07:17:52;;;;;;;7.72;3.63;;;;;;;19.18;40.22;98562.84;10576662;28;20047;-59
2022/03/22 07:23:12;;;;;;;10.25;4.15;;;;;;;19.20;40.25;98560.66;10553678;28;20133;-59
2022/03/22 07:28:31;;;;;;;7.00;3.20;;;;;;;19.21;40.28;98559.59;10548371;28;20052;-59
2022/03/22 07:33:51;;;;;;;8.88;3.67;;;;;;;19.23;40.12;98562.81;10538023;28;20151;-58
2022/03/22 07:39:11;;;;;;;8.70;3.45;;;;;;;19.24;40.26;98560.94;10535480;28;20052;-59
2022/03/22 07:44:31;;;;;;;6.97;3.17;;;;;;;19.26;40.13;98573.06;10524993;28;20454;-58
2022/03/22 07:55:38;;;;;;;7.83;3.63;;;;;;;19.29;40.38;98577.13;10542403;28;20073;-59
2022/03/22 08:00:58;;;;;;;6.13;3.17;;;;;;;19.30;40.29;98582.22;10531235;28;20055;-59
2022/03/22 08:06:17;;;;;;;4.88;3.25;;;;;;;19.31;40.19;98572.25;10530516;28;20048;-59
2022/03/22 08:11:39;;;;;;;9.35;3.78;;;;;;;19.30;40.40;98576.03;10546703;28;20059;-59
2022/03/22 08:16:59;;;;;;;6.68;3.45;;;;;;;19.32;40.21;98571.94;10545063;28;20055;-59
2022/03/22 08:22:19;;;;;;;5.70;3.40;;;;;;;19.33;40.33;98580.88;10553374;28;20036;-59
2022/03/22 08:27:39;;;;;;;6.10;3.00;;;;;;;19.33;40.27;98568.16;10551820;28;20069;-60
2022/03/22 08:33:00;;;;;;;5.30;3.30;;;;;;;19.34;40.27;98574.38;10529248;28;20043;-59
2022/03/22 08:38:21;;;;;;;6.82;3.28;;;;;;;19.34;40.13;98575.16;10530685;28;20636;-59
2022/03/22 08:43:40;;;;;;;6.93;3.53;;;;;;;19.34;40.25;98568.97;10535976;28;20063;-59
2022/03/22 08:48:59;;;;;;;6.20;3.15;;;;;;;19.34;40.22;98563.56;10572930;28;20040;-59
2022/03/22 08:54:21;;;;;;;5.85;2.92;;;;;;;19.34;40.11;98561.66;10522909;28;20150;-59
2022/03/22 08:59:41;;;;;;;5.55;2.75;;;;;;;19.36;40.27;98561.38;10536181;28;20048;-59
2022/03/22 09:10:39;;;;;;;4.60;2.73;;;;;;;19.37;40.31;98554.91;10520617;28;20039;-59
2022/03/22 09:15:59;;;;;;;4.07;2.75;;;;;;;19.37;40.14;98546.81;10540313;28;20093;-59
2022/03/22 09:21:19;;;;;;;6.60;3.35;;;;;;;19.36;39.72;98545.97;10535152;28;20048;-59
2022/03/22 09:26:39;;;;;;;6.22;3.00;;;;;;;19.36;39.60;98534.34;10535535;28;20124;-58
2022/03/22 09:31:58;;;;;;;6.13;3.20;;;;;;;19.35;39.54;98538.97;10560823;28;20567;-59
2022/03/22 09:37:17;;;;;;;5.18;3.00;;;;;;;19.35;39.71;98538.97;10541019;28;20047;-59
2022/03/22 09:42:42;;;;;;;5.18;2.78;;;;;;;19.35;39.20;98535.47;10526371;28;20108;-58
2022/03/22 09:48:02;;;;;;;5.50;3.30;;;;;;;19.33;39.24;98524.13;10591009;28;20044;-58
2022/03/22 09:53:22;;;;;;;3.97;2.97;;;;;;;19.33;38.77;98524.13;10546079;28;20515;-58
2022/03/22 09:58:41;;;;;;;4.32;3.10;;;;;;;19.34;38.71;98523.03;10534041;28;20357;-58
2022/03/22 10:04:09;;;;;;;5.60;3.00;;;;;;;19.33;38.53;98513.31;10539803;28;20039;-58
2022/03/22 10:09:36;;;;;;;5.72;2.78;;;;;;;19.33;38.52;98513.31;10535859;28;20105;-58
2022/03/22 10:15:13;;;;;;;3.97;3.10;;;;;;;19.33;38.46;98519.53;10567588;28;20500;-58
2022/03/22 10:20:37;;;;;;;4.40;3.22;;;;;;;19.33;38.56;98505.22;10553464;28;20063;-59
2022/03/22 10:26:07;;;;;;;5.60;3.17;;;;;;;19.32;38.47;98511.69;10545284;28;20066;-59
2022/03/22 10:31:34;;;;;;;3.95;2.88;;;;;;;19.32;38.55;98500.88;10540930;28;20096;-58
2022/03/22 10:36:54;;;;;;;4.28;3.00;;;;;;;19.31;38.59;98505.50;10544425;28;20047;-59
2022/03/22 10:42:13;;;;;;;3.85;3.00;;;;;;;19.32;38.53;98509.00;10545403;28;20052;-59
2022/03/22 10:47:32;;;;;;;4.10;2.97;;;;;;;19.31;38.67;98507.38;10553353;28;20441;-59
2022/03/22 10:52:55;;;;;;;4.43;2.85;;;;;;;19.30;38.70;98497.66;10560767;28;20055;-59
2022/03/22 10:58:24;;;;;;;3.20;2.88;;;;;;;19.28;38.66;98497.94;10538851;28;20052;-59
2022/03/22 11:03:43;;;;;;;3.35;2.70;;;;;;;19.29;38.66;98483.34;10546390;28;20113;-60
2022/03/22 11:09:03;;;;;;;4.32;2.80;;;;;;;19.28;38.77;98475.50;10531875;28;20044;-58
2022/03/22 11:14:23;;;;;;;4.40;2.60;;;;;;;19.30;39.21;98481.44;10542885;28;21197;-58
2022/03/22 11:19:43;;;;;;;5.07;2.80;;;;;;;19.28;39.23;98467.41;10540785;28;20434;-59
2022/03/22 11:25:10;;;;;;;3.97;2.92;;;;;;;19.28;39.41;98462.00;10573613;28;20040;-59
2022/03/22 11:30:31;;;;;;;3.60;2.60;;;;;;;19.27;39.27;98465.81;10550097;28;20047;-58
2022/03/22 11:35:53;;;;;;;3.65;2.55;;;;;;;19.27;39.40;98455.00;10576305;28;20532;-58
2022/03/22 11:47:27;;;;;;;3.22;2.40;;;;;;;19.25;39.43;98451.75;10510737;28;20090;-59
2022/03/22 11:52:50;;;;;;;6.07;2.53;;;;;;;19.26;39.71;98437.97;10531080;28;20583;-59
2022/03/22 11:58:10;;;;;;;3.65;2.33;;;;;;;19.27;39.69;98438.78;10541263;28;20040;-59
2022/03/22 12:03:35;;;;;;;4.20;2.35;;;;;;;19.25;39.85;98430.13;10522949;28;20483;-58
2022/03/22 12:08:54;;;;;;;3.95;2.30;;;;;;;19.26;39.75;98423.66;10536851;28;20538;-58
2022/03/22 12:14:26;;;;;;;3.45;2.28;;;;;;;19.24;39.78;98412.31;10532167;28;20044;-59
2022/03/22 12:19:45;;;;;;;3.55;2.22;;;;;;;19.24;39.82;98417.72;10541497;28;20055;-59
2022/03/22 12:25:05;;;;;;;2.75;2.47;;;;;;;19.25;39.88;98412.03;10563102;28;20050;-59
2022/03/22 12:30:47;;;;;;;3.10;2.08;;;;;;;19.24;39.78;98401.50;10551186;28;20495;-59
2022/03/22 12:36:06;;;;;;;4.10;2.22;;;;;;;19.24;39.86;98396.09;10529584;28;20040;-59
2022/03/22 12:41:26;;;;;;;3.10;2.20;;;;;;;19.23;40.06;98387.22;10531889;28;20040;-59
2022/03/22 12:46:46;;;;;;;3.45;2.42;;;;;;;19.23;39.96;98384.50;10545213;28;20056;-59
2022/03/22 12:52:08;;;;;;;2.67;2.30;;;;;;;19.22;40.07;98371.28;10536069;28;20051;-59
2022/03/22 12:57:29;;;;;;;4.32;2.30;;;;;;;19.23;39.96;98372.88;10532587;28;20048;-59
2022/03/22 13:02:49;;;;;;;3.67;2.10;;;;;;;19.23;40.04;98371.00;10533049;28;20115;-59
2022/03/22 13:08:14;;;;;;;2.50;2.17;;;;;;;19.22;40.14;98365.88;10549890;28;20044;-59
2022/03/22 13:19:17;;;;;;;2.47;2.00;;;;;;;19.22;40.08;98360.47;10529428;28;20043;-59
2022/03/22 13:24:37;;;;;;;1.92;1.80;;;;;;;19.22;40.27;98365.88;10535338;28;20098;-59
2022/03/22 13:29:59;;;;;;;2.22;2.03;;;;;;;19.22;40.08;98349.66;10529363;28;20495;-59
2022/03/22 13:35:20;;;;;;;2.35;1.85;;;;;;;19.20;40.20;98341.84;10533884;28;20048;-59
2022/03/22 13:40:43;;;;;;;2.53;2.10;;;;;;;19.20;40.34;98349.94;10531139;28;20056;-58
2022/03/22 13:46:05;;;;;;;2.40;2.17;;;;;;;19.20;40.38;98349.94;10531040;28;20048;-59
2022/03/22 13:51:25;;;;;;;3.88;2.08;;;;;;;19.20;40.22;98341.84;10553597;28;20044;-58
2022/03/22 13:56:45;;;;;;;3.85;2.20;;;;;;;19.19;40.41;98329.44;10561261;28;20051;-58
2022/03/22 14:02:06;;;;;;;2.83;2.13;;;;;;;19.19;40.36;98332.13;10543293;28;20059;-59
2022/03/22 14:07:25;;;;;;;2.35;1.98;;;;;;;19.19;40.36;98334.00;10551482;28;20044;-58
2022/03/22 14:12:45;;;;;;;2.35;1.90;;;;;;;19.19;40.31;98331.31;10526633;28;20048;-59
2022/03/22 14:18:05;;;;;;;2.17;1.75;;;;;;;19.17;40.37;98316.19;10539306;28;20055;-58
2022/03/22 14:23:27;;;;;;;2.63;2.03;;;;;;;19.17;40.42;98318.09;10568004;28;20051;-58
2022/03/22 14:28:48;;;;;;;4.55;2.10;;;;;;;19.17;40.48;98313.50;10570993;28;20048;-59
2022/03/22 14:34:12;;;;;;;2.45;2.10;;;;;;;19.16;39.91;98309.16;10543552;28;20050;-59
2022/03/22 14:39:31;;;;;;;3.67;2.40;;;;;;;19.14;38.32;98299.75;10528231;28;20040;-58
2022/03/22 14:44:52;;;;;;;3.45;2.72;;;;;;;19.10;36.27;98288.69;10558080;28;20036;-59
2022/03/22 14:50:11;;;;;;;3.75;3.17;;;;;;;19.09;34.86;98292.50;10533459;28;20048;-59
2022/03/22 14:55:32;;;;;;;4.03;2.85;;;;;;;19.07;33.97;98292.00;10537093;28;20081;-59
2022/03/22 15:00:56;;;;;;;5.22;2.92;;;;;;;19.05;32.80;98285.25;10533859;28;20109;-59
2022/03/22 15:06:17;;;;;;;4.30;2.92;;;;;;;19.04;31.79;98279.03;10539129;28;20128;-59
2022/03/22 15:11:36;;;;;;;4.10;3.30;;;;;;;19.04;31.09;98273.63;10533079;28;20067;-59
2022/03/22 15:16:56;;;;;;;3.47;3.17;;;;;;;19.04;30.81;98278.25;10552181;28;20044;-59
2022/03/22 15:22:16;;;;;;;3.35;3.05;;;;;;;19.05;30.05;98275.25;10560504;28;20559;-60
2022/03/22 15:27:35;;;;;;;5.38;3.30;;;;;;;19.06;29.60;98266.06;10529334;28;20101;-60
2022/03/22 15:32:55;;;;;;;3.55;3.13;;;;;;;19.08;29.42;98271.19;10534576;28;20055;-58
2022/03/22 15:38:16;;;;;;;4.70;3.28;;;;;;;19.11;29.55;98267.88;10550432;28;20073;-59
2022/03/22 15:43:35;;;;;;;23.65;8.55;;;;;;;19.11;30.36;98262.50;10557377;28;20059;-60
2022/03/22 15:48:55;;;;;;;8.52;4.35;;;;;;;19.12;29.97;98258.72;10530936;28;20093;-62
2022/03/22 15:54:15;;;;;;;8.18;4.22;;;;;;;19.12;29.83;98262.22;10550170;28;20040;-63
2022/03/22 15:59:34;;;;;;;13.38;4.20;;;;;;;19.14;29.79;98249.22;10524446;28;20044;-60
2022/03/22 16:04:55;;;;;;;5.30;4.03;;;;;;;19.17;29.95;98259.47;10548790;28;20043;-60
2022/03/22 16:10:16;;;;;;;7.13;3.85;;;;;;;19.20;30.34;98255.38;10540084;28;20041;-60
2022/03/22 16:15:36;;;;;;;15.30;6.50;;;;;;;19.22;31.26;98257.81;10542984;28;20071;-58
2022/03/22 16:20:56;;;;;;;7.78;4.43;;;;;;;19.24;31.33;98245.59;10530411;28;20067;-58
2022/03/22 16:26:16;;;;;;;9.70;4.45;;;;;;;19.28;32.29;98252.03;10521878;28;20063;-59
2022/03/22 16:31:36;;;;;;;9.68;4.38;;;;;;;19.29;33.76;98240.16;10532779;28;20453;-58
2022/03/22 16:36:55;;;;;;;7.47;5.15;;;;;;;19.32;36.11;98246.88;10532958;28;20041;-59
2022/03/22 16:42:15;;;;;;;7.40;4.07;;;;;;;19.34;36.72;98244.69;10524587;28;20478;-59
2022/03/22 16:47:34;;;;;;;8.90;4.20;;;;;;;19.36;37.31;98250.63;10536908;28;20486;-59
2022/03/22 16:52:54;;;;;;;6.45;4.28;;;;;;;19.39;37.39;98254.66;10545286;28;20055;-59
2022/03/22 16:58:14;;;;;;;8.82;4.05;;;;;;;19.39;37.70;98260.06;10534142;28;20661;-58
2022/03/22 17:03:35;;;;;;;5.63;3.80;;;;;;;19.38;37.43;98255.72;10535045;28;20056;-60
2022/03/22 17:08:55;;;;;;;8.52;3.95;;;;;;;19.38;36.87;98256.53;10534856;28;20059;-59
2022/03/22 17:14:15;;;;;;;8.95;3.65;;;;;;;19.38;36.81;98256.53;10540505;28;20490;-60
2022/03/22 17:19:36;;;;;;;10.20;3.47;;;;;;;19.40;36.91;98264.34;10553911;28;20052;-57
2022/03/22 17:24:55;;;;;;;7.10;3.78;;;;;;;19.40;37.42;98259.75;10535726;28;20658;-57
2022/03/22 17:30:15;;;;;;;7.07;3.55;;;;;;;19.42;37.56;98260.25;10530851;28;20048;-57
2022/03/22 17:35:35;;;;;;;7.00;3.45;;;;;;;19.43;37.81;98261.88;10556612;28;20043;-57
2022/03/22 17:40:55;;;;;;;11.18;3.72;;;;;;;19.44;38.41;98262.69;10530886;28;20157;-57
2022/03/22 17:46:15;;;;;;;7.43;4.05;;;;;;;19.49;38.81;98259.94;10528231;28;20044;-57
2022/03/22 17:51:35;;;;;;;10.75;4.43;;;;;;;19.49;39.29;98266.13;10504992;28;20094;-57
2022/03/22 17:56:54;;;;;;;8.77;3.90;;;;;;;19.50;39.53;98256.94;10521081;28;20056;-56
2022/03/22 18:02:14;;;;;;;11.40;3.75;;;;;;;19.50;39.90;98265.06;10526244;28;20478;-58
2022/03/22 18:07:36;;;;;;;7.28;5.07;;;;;;;19.48;37.06;98264.56;10504930;28;20044;-57
2022/03/22 18:12:56;;;;;;;7.88;5.88;;;;;;;19.26;27.51;98270.44;10540812;28;20075;-57
2022/03/22 18:18:20;;;;;;;9.43;5.80;;;;;;;19.06;24.33;98270.66;10535182;28;20048;-57
2022/03/22 18:23:39;;;;;;;7.93;5.38;;;;;;;18.88;23.92;98270.28;10547524;28;20090;-58
2022/03/22 18:28:59;;;;;;;11.00;7.13;;;;;;;18.93;28.53;98286.44;10531271;28;20043;-59
2022/03/22 18:34:19;;;;;;;6.30;5.30;;;;;;;19.02;30.08;98281.22;10537226;28;20074;-62
2022/03/22 18:39:39;;;;;;;6.45;4.85;;;;;;;19.07;30.91;98283.88;10525432;28;20053;-61
2022/03/22 18:44:59;;;;;;;6.35;4.93;;;;;;;19.13;31.44;98287.31;10530030;28;20056;-61
2022/03/22 18:50:18;;;;;;;6.72;5.05;;;;;;;19.16;32.14;98287.56;10536982;28;20048;-62
2022/03/22 18:55:40;;;;;;;6.65;4.18;;;;;;;19.20;32.68;98287.81;10510742;28;20048;-64
2022/03/22 19:00:59;;;;;;;4.63;3.88;;;;;;;19.22;33.25;98295.63;10511188;28;20053;-65
2022/03/22 19:06:19;;;;;;;5.60;3.80;;;;;;;19.26;33.64;98299.38;10523792;28;20039;-60
2022/03/22 19:11:38;;;;;;;5.00;3.70;;;;;;;19.29;34.18;98306.91;10534471;28;20051;-59
2022/03/22 19:22:37;;;;;;;;;;;;;;;19.33;35.06;98313.34;10551170;28;20063;-59
2022/03/22 19:27:57;;;;;;;4.82;3.35;;;;;;;19.36;35.01;98316.25;10548851;28;20408;-66
2022/03/22 19:33:17;;;;;;;4.78;3.63;;;;;;;19.39;35.59;98320.31;10565726;28;20060;-64
2022/03/22 19:38:37;;;;;;;4.60;3.60;;;;;;;19.43;36.44;98320.56;10531866;28;20459;-65
2022/03/22 19:43:57;;;;;;;6.65;3.33;;;;;;;19.45;36.92;98324.56;10519893;28;20408;-65
2022/03/22 19:49:17;;;;;;;5.45;3.47;;;;;;;19.50;37.11;98321.81;10534852;28;20048;-65
2022/03/22 19:54:37;;;;;;;5.43;3.47;;;;;;;19.52;37.39;98321.50;10550753;28;20050;-63
2022/03/22 19:59:57;;;;;;;7.40;3.55;;;;;;;19.55;37.58;98326.38;10533107;28;20044;-63
2022/03/22 20:05:17;;;;;;;4.82;3.13;;;;;;;19.58;37.68;98325.78;10526069;28;20055;-60
2022/03/22 20:10:37;;;;;;;7.68;6.00;;;;;;;19.58;34.69;98324.97;10554114;28;20051;-59
2022/03/22 20:15:57;;;;;;;5.95;3.80;;;;;;;19.56;37.26;98323.38;10582057;28;20059;-59
2022/03/22 20:21:17;;;;;;;6.20;4.05;;;;;;;19.59;37.50;98332.81;10572222;28;20048;-57
2022/03/22 20:26:37;;;;;;;5.05;3.67;;;;;;;19.60;37.52;98331.72;10551171;28;20067;-58
2022/03/22 20:31:57;;;;;;;6.15;3.65;;;;;;;19.61;37.58;98319.00;10546088;28;20053;-58
2022/03/22 20:37:16;;;;;;;5.47;3.40;;;;;;;19.63;37.69;98322.22;10544434;28;20501;-58
2022/03/22 20:42:36;;;;;;;5.43;3.65;;;;;;;19.64;37.66;98321.13;10549557;28;20091;-59
2022/03/22 20:47:57;;;;;;;5.97;3.60;;;;;;;19.65;37.88;98318.13;10560546;28;20212;-57
2022/03/22 20:53:18;;;;;;;8.05;3.50;;;;;;;19.65;37.74;98318.13;10552058;28;20044;-59
2022/03/22 21:04:16;;;;;;;4.63;3.38;;;;;;;19.65;37.86;98310.03;10527552;28;20054;-58
2022/03/22 21:09:36;;;;;;;4.05;3.30;;;;;;;19.66;38.04;98316.22;10569233;28;20036;-58
2022/03/22 21:14:57;;;;;;;6.75;3.50;;;;;;;19.67;37.99;98318.66;10521184;28;20063;-57
2022/03/22 21:20:16;;;;;;;4.82;3.30;;;;;;;19.67;38.01;98309.75;10531150;28;20710;-58
2022/03/22 21:25:36;;;;;;;7.30;3.42;;;;;;;19.67;37.97;98305.13;10527667;28;20514;-57
2022/03/22 21:30:56;;;;;;;4.43;3.17;;;;;;;19.67;38.07;98310.53;10528958;28;20056;-57
2022/03/22 21:36:16;;;;;;;5.47;3.22;;;;;;;19.67;37.85;98307.84;10543660;28;20036;-58
2022/03/22 21:41:36;;;;;;;4.78;3.10;;;;;;;19.66;37.87;98308.94;10529096;28;20071;-57
2022/03/22 21:46:56;;;;;;;4.80;3.40;;;;;;;19.66;37.85;98305.41;10533329;28;20051;-57
2022/03/22 21:52:15;;;;;;;3.95;3.08;;;;;;;19.66;37.88;98300.00;10546544;28;20510;-57
2022/03/22 21:57:36;;;;;;;9.38;3.45;;;;;;;19.65;37.89;98291.09;10531947;28;20051;-57
2022/03/22 22:02:56;;;;;;;3.40;2.95;;;;;;;19.65;38.07;98287.59;10530457;28;20116;-57
2022/03/22 22:08:16;;;;;;;8.00;3.20;;;;;;;19.65;37.97;98285.69;10544506;28;20106;-57
2022/03/22 22:13:35;;;;;;;4.43;3.10;;;;;;;19.65;37.97;98290.31;10526650;28;20041;-57
2022/03/22 22:18:55;;;;;;;5.03;3.28;;;;;;;19.65;38.03;98284.91;10533377;28;20044;-57
2022/03/22 22:24:16;;;;;;;3.85;3.10;;;;;;;19.63;37.91;98285.19;10541065;28;20040;-57
2022/03/22 22:29:36;;;;;;;4.40;3.17;;;;;;;19.62;37.88;98282.75;10540698;28;20054;-56
2022/03/22 22:34:56;;;;;;;4.78;3.33;;;;;;;19.62;37.92;98280.88;10540673;28;20048;-57
2022/03/22 22:40:16;;;;;;;4.93;3.03;;;;;;;19.61;37.98;98281.16;10540305;28;20063;-58
2022/03/22 22:45:36;;;;;;;3.58;2.80;;;;;;;19.59;37.94;98272.53;10540078;28;20082;-56
2022/03/22 22:50:55;;;;;;;4.00;2.70;;;;;;;19.61;37.92;98275.75;10538540;28;20055;-56
2022/03/22 22:56:15;;;;;;;3.38;2.83;;;;;;;19.60;37.90;98271.41;10542697;28;20550;-56
2022/03/22 23:01:42;;;;;;;3.65;2.92;;;;;;;19.59;37.85;98273.31;10578840;28;20104;-57
2022/03/22 23:12:40;;;;;;;4.32;2.67;;;;;;;19.56;37.88;98269.31;10526806;28;20071;-56
2022/03/22 23:18:01;;;;;;;3.78;2.60;;;;;;;19.56;37.86;98269.31;10568815;28;20055;-58
2022/03/22 23:23:21;;;;;;;3.95;2.47;;;;;;;19.55;37.88;98277.69;10558933;28;20101;-57
2022/03/22 23:28:40;;;;;;;4.57;2.70;;;;;;;19.54;37.82;98274.19;10544342;28;20541;-57
2022/03/22 23:34:00;;;;;;;4.00;2.60;;;;;;;19.53;37.88;98261.75;10559283;28;20055;-58
2022/03/22 23:39:20;;;;;;;4.97;2.70;;;;;;;19.52;37.75;98260.19;10553154;28;20050;-57
2022/03/22 23:44:40;;;;;;;5.28;2.70;;;;;;;19.52;37.87;98257.47;10578806;28;20449;-57
2022/03/22 23:49:59;;;;;;;3.13;2.53;;;;;;;19.50;37.73;98254.25;10508105;28;20048;-56
2022/03/22 23:55:19;;;;;;;2.83;2.33;;;;;;;19.50;37.90;98254.25;10562920;28;20059;-57
